Time;durP1;ratioP1;P1;durP2;ratioP2;P2;SDS_P1;SDS_P2;PMS_P1;PMS_P2;Temp;Humidity;BMP_temperature;BMP_pressure;BME280_temperature;BME280_humidity;BME280_pressure;Samples;Min_cycle;Max_cycle;Signal;HPM_P1;HPM_P2
2024/03/31 00:02:11;;;;;;;25.08;5.07;;;15.20;81.30;;;;;;5045674;28;20034;-59
2024/03/31 00:04:37;;;;;;;22.60;4.47;;;15.20;81.70;;;;;;5046343;28;20055;-59
2024/03/31 00:07:03;;;;;;;21.30;4.40;;;15.20;81.80;;;;;;5045558;28;20548;-59
2024/03/31 00:09:29;;;;;;;17.77;3.97;;;15.20;81.70;;;;;;5045605;28;20040;-58
2024/03/31 00:11:54;;;;;;;22.15;4.35;;;15.20;81.60;;;;;;5046971;28;20029;-58
2024/03/31 00:14:20;;;;;;;19.58;4.43;;;15.20;81.70;;;;;;5045518;28;20029;-58
2024/03/31 00:16:46;;;;;;;20.17;3.97;;;15.20;81.80;;;;;;5045511;28;20457;-59
2024/03/31 00:19:12;;;;;;;17.75;4.18;;;15.10;81.80;;;;;;5045315;28;20140;-59
2024/03/31 00:21:37;;;;;;;22.58;4.43;;;15.10;81.80;;;;;;5028749;28;20034;-59
2024/03/31 00:24:03;;;;;;;22.05;4.63;;;15.10;81.90;;;;;;5046534;28;20055;-59
2024/03/31 00:26:29;;;;;;;25.67;4.55;;;15.10;82.00;;;;;;5046501;28;20080;-59
2024/03/31 00:28:54;;;;;;;19.27;4.35;;;15.00;82.00;;;;;;5045202;28;20026;-59
2024/03/31 00:31:20;;;;;;;23.08;4.13;;;15.00;82.10;;;;;;5046494;28;20033;-59
2024/03/31 00:33:48;;;;;;;19.15;4.20;;;15.00;82.20;;;;;;5046638;28;20071;-59
2024/03/31 00:36:14;;;;;;;20.45;4.80;;;15.00;82.20;;;;;;5028246;28;20033;-59
2024/03/31 00:38:39;;;;;;;19.55;4.72;;;15.00;82.30;;;;;;5044970;28;20025;-59
2024/03/31 00:41:05;;;;;;;21.75;4.72;;;15.00;82.40;;;;;;5044631;28;20354;-59
2024/03/31 00:43:31;;;;;;;16.35;4.10;;;15.00;82.60;;;;;;5046282;28;20140;-59
2024/03/31 00:45:56;;;;;;;16.30;4.20;;;14.90;82.60;;;;;;5028273;28;20021;-59
2024/03/31 00:48:22;;;;;;;19.85;3.97;;;14.90;82.70;;;;;;5044690;28;20044;-59
2024/03/31 00:50:48;;;;;;;20.02;4.30;;;15.00;82.70;;;;;;5044633;28;20029;-59
2024/03/31 00:53:13;;;;;;;18.63;4.32;;;14.90;82.70;;;;;;5028024;28;20022;-59
2024/03/31 00:55:39;;;;;;;15.68;3.75;;;14.90;83.00;;;;;;5045948;28;20030;-59
2024/03/31 00:58:04;;;;;;;15.95;4.00;;;14.90;83.10;;;;;;5045869;28;20033;-59
2024/03/31 01:00:30;;;;;;;18.00;4.88;;;14.90;83.00;;;;;;5044721;28;20028;-59
2024/03/31 01:02:56;;;;;;;16.42;3.80;;;14.80;83.00;;;;;;5044557;28;20029;-59
2024/03/31 01:05:21;;;;;;;13.88;4.00;;;14.80;83.20;;;;;;5044205;28;20385;-59
2024/03/31 01:07:47;;;;;;;16.13;3.88;;;14.80;83.20;;;;;;5045598;28;20029;-58
2024/03/31 01:10:13;;;;;;;16.10;3.78;;;14.80;83.60;;;;;;5045616;28;20025;-59
2024/03/31 01:12:38;;;;;;;15.13;3.53;;;14.80;83.60;;;;;;5044235;28;20179;-59
2024/03/31 01:15:04;;;;;;;17.92;3.95;;;14.80;83.50;;;;;;5043190;28;20037;-59
2024/03/31 01:17:30;;;;;;;18.35;4.05;;;14.80;83.40;;;;;;5045455;28;20146;-59
2024/03/31 01:19:56;;;;;;;16.58;4.07;;;14.70;83.40;;;;;;5043678;28;20025;-59
2024/03/31 01:22:22;;;;;;;15.48;4.15;;;14.80;83.50;;;;;;5043985;28;20033;-59
2024/03/31 01:24:48;;;;;;;21.05;4.00;;;14.70;83.50;;;;;;5044033;28;20025;-59
2024/03/31 01:27:13;;;;;;;15.80;3.92;;;14.70;83.60;;;;;;5027389;28;20044;-59
2024/03/31 01:29:39;;;;;;;19.00;3.58;;;14.70;83.60;;;;;;5043913;28;20357;-59
2024/03/31 01:32:05;;;;;;;19.92;3.47;;;14.60;83.60;;;;;;5043859;28;20029;-58
2024/03/31 01:34:31;;;;;;;16.10;3.35;;;14.60;83.80;;;;;;5043854;28;20021;-59
2024/03/31 01:36:56;;;;;;;18.23;3.47;;;14.60;84.00;;;;;;5043629;28;20087;-59
2024/03/31 01:39:22;;;;;;;19.10;4.10;;;14.60;84.10;;;;;;5043727;28;20033;-59
2024/03/31 01:41:48;;;;;;;16.88;4.25;;;14.60;84.10;;;;;;5045078;28;20082;-59
2024/03/31 01:44:14;;;;;;;13.48;3.40;;;14.60;84.20;;;;;;5027100;28;20029;-59
2024/03/31 01:46:39;;;;;;;17.20;3.88;;;14.50;84.10;;;;;;5043802;28;20033;-59
2024/03/31 01:49:05;;;;;;;12.57;3.35;;;14.50;84.10;;;;;;5027082;28;20028;-59
2024/03/31 01:51:30;;;;;;;20.10;4.18;;;14.50;84.10;;;;;;5043692;28;20026;-59
2024/03/31 01:53:56;;;;;;;10.27;3.80;;;14.50;84.20;;;;;;5043679;28;20035;-59
2024/03/31 01:56:22;;;;;;;15.57;3.50;;;14.50;84.10;;;;;;5043794;28;20326;-59
2024/03/31 01:58:47;;;;;;;15.95;3.35;;;14.50;84.30;;;;;;5043999;28;20049;-59
2024/03/31 02:01:13;;;;;;;19.02;3.38;;;14.40;84.30;;;;;;5043438;28;20095;-59
2024/03/31 02:03:38;;;;;;;14.93;3.85;;;14.40;84.60;;;;;;5043482;28;20033;-59
2024/03/31 02:06:08;;;;;;;13.52;3.55;;;14.40;84.60;;;;;;5044699;28;20025;-59
2024/03/31 02:08:33;;;;;;;15.00;3.50;;;14.40;84.50;;;;;;5026820;28;20041;-59
2024/03/31 02:10:59;;;;;;;17.00;3.40;;;14.40;84.40;;;;;;5026740;28;20089;-59
2024/03/31 02:13:25;;;;;;;14.23;3.17;;;14.40;84.40;;;;;;5043309;28;20357;-59
2024/03/31 02:15:50;;;;;;;20.48;3.83;;;14.40;84.50;;;;;;5043055;28;20033;-59
2024/03/31 02:18:16;;;;;;;17.50;3.67;;;14.40;84.60;;;;;;5043318;28;20029;-60
2024/03/31 02:20:42;;;;;;;17.73;3.75;;;14.30;84.60;;;;;;5044668;28;20033;-59
2024/03/31 02:23:07;;;;;;;12.45;3.28;;;14.30;84.60;;;;;;5042898;28;20129;-59
2024/03/31 02:25:33;;;;;;;20.13;3.25;;;14.30;84.70;;;;;;5044332;28;20033;-59
2024/03/31 02:27:59;;;;;;;18.55;3.55;;;14.30;84.80;;;;;;5042861;28;20021;-59
2024/03/31 02:30:25;;;;;;;13.73;3.17;;;14.20;84.80;;;;;;5044399;28;20044;-59
2024/03/31 02:32:50;;;;;;;13.13;3.47;;;14.20;85.00;;;;;;5042630;28;20029;-59
2024/03/31 02:35:16;;;;;;;12.07;3.28;;;14.20;84.90;;;;;;5043180;28;20036;-59
2024/03/31 02:37:42;;;;;;;16.58;3.45;;;14.20;85.00;;;;;;5043105;28;20052;-59
2024/03/31 02:40:08;;;;;;;11.90;3.53;;;14.20;85.00;;;;;;5042995;28;20541;-59
2024/03/31 02:42:33;;;;;;;9.10;3.08;;;14.10;85.00;;;;;;5026761;28;20042;-59
2024/03/31 02:44:59;;;;;;;12.95;3.97;;;14.10;85.10;;;;;;5043266;28;20337;-59
2024/03/31 02:47:25;;;;;;;15.10;3.47;;;14.10;85.10;;;;;;5043147;28;20039;-59
2024/03/31 02:49:50;;;;;;;13.98;3.72;;;14.10;85.20;;;;;;5043194;28;20091;-59
2024/03/31 02:52:16;;;;;;;14.52;3.53;;;14.10;85.40;;;;;;5044682;28;20037;-59
2024/03/31 02:54:41;;;;;;;18.13;4.00;;;14.10;85.40;;;;;;5044365;28;20022;-59
2024/03/31 02:57:07;;;;;;;14.32;3.67;;;14.10;85.30;;;;;;5042886;28;20048;-59
2024/03/31 02:59:33;;;;;;;12.80;3.80;;;14.10;85.40;;;;;;5044060;28;20032;-59
2024/03/31 03:01:58;;;;;;;12.48;3.25;;;14.00;85.30;;;;;;5044537;28;20037;-59
2024/03/31 03:04:24;;;;;;;17.58;3.17;;;14.00;85.40;;;;;;5042867;28;20044;-59
2024/03/31 03:06:49;;;;;;;16.77;3.58;;;14.00;85.40;;;;;;5044270;28;20433;-59
2024/03/31 03:09:15;;;;;;;14.93;3.75;;;14.00;85.60;;;;;;5048059;28;20068;-58
2024/03/31 03:11:41;;;;;;;13.35;3.75;;;14.00;85.70;;;;;;5062684;28;20413;-58
2024/03/31 03:14:06;;;;;;;12.40;2.97;;;13.90;85.50;;;;;;5064052;28;20053;-59
2024/03/31 03:16:32;;;;;;;13.75;3.30;;;14.00;85.60;;;;;;5063915;28;20372;-59
2024/03/31 03:18:57;;;;;;;12.07;3.22;;;13.90;85.60;;;;;;5062419;28;20029;-59
2024/03/31 03:21:23;;;;;;;11.68;2.92;;;13.90;85.80;;;;;;5063867;28;20037;-59
2024/03/31 03:23:48;;;;;;;14.43;3.47;;;13.90;85.90;;;;;;5062390;28;20039;-59
2024/03/31 03:26:14;;;;;;;14.10;3.10;;;13.90;85.90;;;;;;5063845;28;20064;-60
2024/03/31 03:28:41;;;;;;;13.55;3.15;;;13.80;85.80;;;;;;5063744;28;20025;-59
2024/03/31 03:31:06;;;;;;;11.63;3.65;;;13.80;85.90;;;;;;5045672;28;20036;-59
2024/03/31 03:33:32;;;;;;;14.15;3.55;;;13.80;85.80;;;;;;5063718;28;20017;-59
2024/03/31 03:36:02;;;;;;;18.10;4.25;;;13.80;85.90;;;;;;5062289;28;20041;-59
2024/03/31 03:38:28;;;;;;;10.80;3.38;;;13.80;85.90;;;;;;5063652;28;20035;-59
2024/03/31 03:40:54;;;;;;;16.67;3.60;;;13.80;85.90;;;;;;5067219;28;20037;-59
2024/03/31 03:43:19;;;;;;;11.48;3.22;;;13.80;86.70;;;;;;5067577;28;20040;-59
2024/03/31 03:45:46;;;;;;;16.65;3.78;;;13.70;86.20;;;;;;5067114;28;20039;-59
2024/03/31 03:48:11;;;;;;;13.50;3.17;;;13.70;86.30;;;;;;5067482;28;20029;-59
2024/03/31 03:50:37;;;;;;;10.65;3.25;;;13.70;86.60;;;;;;5065692;28;20092;-59
2024/03/31 03:53:04;;;;;;;18.90;3.35;;;13.70;86.30;;;;;;5067293;28;20452;-59
2024/03/31 03:55:30;;;;;;;17.75;3.78;;;13.70;86.30;;;;;;5065868;28;20044;-59
2024/03/31 03:57:55;;;;;;;12.50;3.50;;;13.70;86.60;;;;;;5065805;28;20033;-59
2024/03/31 04:00:21;;;;;;;19.40;3.38;;;13.70;86.70;;;;;;5065891;28;20075;-59
2024/03/31 04:02:50;;;;;;;8.43;2.85;;;13.70;86.70;;;;;;5065632;28;20033;-59
2024/03/31 04:05:15;;;;;;;12.50;4.25;;;13.60;86.50;;;;;;5065498;28;20039;-59
2024/03/31 04:07:41;;;;;;;10.10;2.72;;;13.60;86.50;;;;;;5065667;28;20021;-59
2024/03/31 04:10:07;;;;;;;11.77;3.13;;;13.60;86.50;;;;;;5065374;28;20467;-59
2024/03/31 04:12:32;;;;;;;12.25;3.63;;;13.60;86.60;;;;;;5065546;28;20021;-59
2024/03/31 04:14:59;;;;;;;14.50;3.28;;;13.60;86.70;;;;;;5065577;28;20029;-58
2024/03/31 04:17:24;;;;;;;11.48;3.13;;;13.60;86.70;;;;;;5065825;28;20036;-59
2024/03/31 04:19:50;;;;;;;15.13;3.20;;;13.50;86.70;;;;;;5067087;28;20029;-59
2024/03/31 04:22:16;;;;;;;8.27;2.97;;;13.50;86.70;;;;;;5065357;28;20048;-59
2024/03/31 04:24:41;;;;;;;11.90;3.40;;;13.50;86.80;;;;;;5066687;28;20040;-59
2024/03/31 04:27:07;;;;;;;16.33;4.25;;;13.50;86.80;;;;;;5065017;28;20051;-59
2024/03/31 04:29:32;;;;;;;14.88;3.10;;;13.50;86.90;;;;;;5066625;28;20029;-59
2024/03/31 04:31:58;;;;;;;16.67;3.40;;;13.50;86.90;;;;;;5066489;28;20521;-59
2024/03/31 04:34:30;;;;;;;18.38;3.83;;;13.50;86.80;;;;;;5065189;28;20122;-58
2024/03/31 04:36:56;;;;;;;14.43;3.65;;;13.50;86.90;;;;;;5065020;28;20029;-59
2024/03/31 04:39:23;;;;;;;13.30;3.13;;;13.40;86.90;;;;;;5065050;28;20036;-58
2024/03/31 04:41:51;;;;;;;10.85;3.53;;;13.40;86.90;;;;;;5066337;28;20037;-59
2024/03/31 04:44:17;;;;;;;11.63;3.03;;;13.40;87.00;;;;;;5065066;28;20043;-61
2024/03/31 04:46:44;;;;;;;10.02;3.10;;;13.40;87.00;;;;;;5066270;28;20432;-59
2024/03/31 04:49:09;;;;;;;14.68;3.53;;;13.40;86.90;;;;;;5065979;28;20017;-59
2024/03/31 04:51:35;;;;;;;10.23;2.85;;;13.40;86.90;;;;;;5064599;28;20033;-60
2024/03/31 04:54:02;;;;;;;10.95;3.00;;;13.40;87.10;;;;;;5064854;28;20055;-59
2024/03/31 04:56:28;;;;;;;10.48;3.00;;;13.40;87.20;;;;;;5066025;28;20037;-59
2024/03/31 04:58:53;;;;;;;7.22;2.80;;;13.40;87.10;;;;;;5047887;28;20055;-59
2024/03/31 05:01:19;;;;;;;16.55;3.17;;;13.40;87.10;;;;;;5066057;28;20472;-59
2024/03/31 05:03:45;;;;;;;11.30;3.50;;;13.40;87.10;;;;;;5064371;28;20398;-59
2024/03/31 05:06:10;;;;;;;10.20;3.00;;;13.40;87.10;;;;;;5064656;28;20093;-59
2024/03/31 05:08:36;;;;;;;14.73;2.95;;;13.30;87.10;;;;;;5064876;28;20028;-59
2024/03/31 05:11:02;;;;;;;9.00;2.92;;;13.30;87.20;;;;;;5064764;28;20041;-59
2024/03/31 05:13:27;;;;;;;13.15;3.47;;;13.30;87.30;;;;;;5065766;28;20022;-59
2024/03/31 05:16:07;;;;;;;14.05;2.97;;;13.30;87.40;;;;;;5065753;28;20029;-59
2024/03/31 05:18:33;;;;;;;13.13;3.22;;;13.30;87.40;;;;;;5064375;28;20097;-59
2024/03/31 05:21:03;;;;;;;14.05;3.53;;;13.30;87.40;;;;;;5064204;28;20105;-59
2024/03/31 05:23:29;;;;;;;10.48;3.00;;;13.30;87.40;;;;;;5065621;28;20021;-59
2024/03/31 05:25:59;;;;;;;13.90;2.97;;;13.30;87.60;;;;;;5063674;28;20024;-59
2024/03/31 05:28:25;;;;;;;12.52;3.05;;;13.30;87.60;;;;;;5064101;28;20029;-59
2024/03/31 05:30:51;;;;;;;13.82;2.83;;;13.20;87.60;;;;;;5063961;28;20025;-58
2024/03/31 05:33:16;;;;;;;11.43;3.15;;;13.20;87.60;;;;;;5065332;28;20120;-59
2024/03/31 05:35:42;;;;;;;11.95;3.40;;;13.20;87.70;;;;;;5047099;28;20062;-58
2024/03/31 05:38:08;;;;;;;16.52;3.47;;;13.20;87.70;;;;;;5063578;28;20123;-59
2024/03/31 05:40:37;;;;;;;12.00;2.90;;;13.20;87.70;;;;;;5063557;28;20099;-59
2024/03/31 05:43:02;;;;;;;14.57;3.47;;;13.20;87.70;;;;;;5046874;28;20059;-59
2024/03/31 05:45:28;;;;;;;12.93;2.92;;;13.20;87.80;;;;;;5063875;28;20025;-59
2024/03/31 05:47:55;;;;;;;10.82;2.60;;;13.20;87.70;;;;;;5066042;28;20045;-59
2024/03/31 05:50:20;;;;;;;12.35;3.35;;;13.20;87.90;;;;;;5046854;28;20460;-58
2024/03/31 05:52:47;;;;;;;20.27;3.45;;;13.20;87.80;;;;;;5063835;28;20040;-58
2024/03/31 05:55:13;;;;;;;11.48;2.80;;;13.20;87.80;;;;;;5064827;28;20078;-59
2024/03/31 05:57:38;;;;;;;10.20;3.00;;;13.20;87.80;;;;;;5046635;28;20029;-59
2024/03/31 06:00:05;;;;;;;20.42;3.38;;;13.20;87.80;;;;;;5063690;28;20036;-59
2024/03/31 06:02:30;;;;;;;16.45;3.22;;;13.20;87.80;;;;;;5064570;28;20048;-59
2024/03/31 06:04:58;;;;;;;12.38;3.50;;;13.20;87.90;;;;;;5064710;28;20025;-59
2024/03/31 06:07:24;;;;;;;17.13;3.08;;;13.20;87.90;;;;;;5063210;28;20085;-59
2024/03/31 06:09:50;;;;;;;13.15;2.90;;;13.20;87.90;;;;;;5062991;28;20079;-59
2024/03/31 06:12:15;;;;;;;11.27;3.15;;;13.20;88.00;;;;;;5064319;28;20509;-59
2024/03/31 06:14:41;;;;;;;15.73;3.10;;;13.20;88.00;;;;;;5064272;28;20456;-59
2024/03/31 06:17:06;;;;;;;10.77;3.15;;;13.20;87.90;;;;;;5064246;28;20029;-59
2024/03/31 06:19:32;;;;;;;11.82;3.20;;;13.20;87.90;;;;;;5046243;28;20025;-59
2024/03/31 06:21:58;;;;;;;16.13;3.45;;;13.20;88.00;;;;;;5062978;28;20040;-59
2024/03/31 06:24:23;;;;;;;12.73;3.00;;;13.20;88.00;;;;;;5063075;28;20025;-59
2024/03/31 06:26:49;;;;;;;15.35;3.60;;;13.20;88.00;;;;;;5064069;28;20040;-59
2024/03/31 06:29:14;;;;;;;11.82;2.95;;;13.20;88.10;;;;;;5062849;28;20043;-59
2024/03/31 06:31:40;;;;;;;12.82;3.40;;;13.20;88.10;;;;;;5062794;28;20479;-59
2024/03/31 06:34:06;;;;;;;13.38;3.50;;;13.20;88.00;;;;;;5062721;28;20070;-59
2024/03/31 06:36:31;;;;;;;13.52;3.20;;;13.20;88.00;;;;;;5064094;28;20359;-59
2024/03/31 06:38:57;;;;;;;13.98;3.35;;;13.20;88.00;;;;;;5046489;28;20029;-59
2024/03/31 06:41:22;;;;;;;16.95;3.58;;;13.20;87.80;;;;;;5063823;28;20037;-59
2024/03/31 06:43:48;;;;;;;9.55;2.70;;;13.30;87.90;;;;;;5062455;28;20028;-59
2024/03/31 06:46:14;;;;;;;12.95;3.20;;;13.30;87.90;;;;;;5063726;28;20033;-59
2024/03/31 06:48:39;;;;;;;19.27;3.72;;;13.30;87.70;;;;;;5062786;28;20021;-59
2024/03/31 06:51:05;;;;;;;14.55;3.25;;;13.30;87.60;;;;;;5062450;28;20044;-59
2024/03/31 06:53:31;;;;;;;12.80;2.88;;;13.30;87.60;;;;;;5064198;28;20025;-59
2024/03/31 06:55:56;;;;;;;14.65;3.40;;;13.30;87.50;;;;;;5062914;28;20032;-59
2024/03/31 06:58:22;;;;;;;13.60;3.55;;;13.30;87.60;;;;;;5062559;28;20029;-59
2024/03/31 07:00:47;;;;;;;12.88;3.55;;;13.30;87.50;;;;;;5063934;28;20021;-59
2024/03/31 07:03:13;;;;;;;13.23;3.20;;;13.40;87.60;;;;;;5062576;28;20086;-59
2024/03/31 07:05:39;;;;;;;14.52;3.13;;;13.40;87.60;;;;;;5062376;28;20051;-59
2024/03/31 07:08:05;;;;;;;15.27;3.50;;;13.40;87.50;;;;;;5062413;28;20040;-59
2024/03/31 07:10:30;;;;;;;32.38;4.63;;;13.40;87.40;;;;;;5063905;28;20108;-59
2024/03/31 07:12:56;;;;;;;18.52;3.75;;;13.40;87.40;;;;;;5064119;28;20052;-59
2024/03/31 07:15:22;;;;;;;17.58;3.75;;;13.40;87.40;;;;;;5066623;28;20083;-59
2024/03/31 07:17:48;;;;;;;21.30;3.33;;;13.40;87.60;;;;;;5067660;28;20021;-59
2024/03/31 07:20:13;;;;;;;19.45;3.38;;;13.40;87.70;;;;;;5066119;28;20094;-59
2024/03/31 07:22:40;;;;;;;17.63;3.67;;;13.40;87.90;;;;;;5054898;28;20441;-59
2024/03/31 07:25:05;;;;;;;23.20;4.63;;;13.40;87.90;;;;;;5047678;28;20116;-59
2024/03/31 07:27:31;;;;;;;36.58;4.80;;;13.40;87.90;;;;;;5046274;28;20040;-59
2024/03/31 07:29:57;;;;;;;41.28;5.15;;;13.40;87.90;;;;;;5046381;28;20100;-59
2024/03/31 07:32:22;;;;;;;42.25;5.35;;;13.40;87.80;;;;;;5062318;28;20030;-59
2024/03/31 07:34:48;;;;;;;31.63;4.82;;;13.50;88.10;;;;;;5046016;28;20084;-59
2024/03/31 07:37:13;;;;;;;39.67;5.65;;;13.50;88.10;;;;;;5046304;28;20501;-59
2024/03/31 07:39:39;;;;;;;22.45;3.55;;;13.50;87.90;;;;;;5067419;28;20056;-59
2024/03/31 07:42:05;;;;;;;23.45;3.58;;;13.50;87.70;;;;;;5065912;28;20064;-59
2024/03/31 07:44:30;;;;;;;25.17;4.00;;;13.50;87.60;;;;;;5067075;28;20104;-59
2024/03/31 07:46:56;;;;;;;22.35;3.65;;;13.50;87.50;;;;;;5065695;28;20368;-59
2024/03/31 07:49:22;;;;;;;18.48;3.92;;;13.60;87.50;;;;;;5049547;28;20104;-59
2024/03/31 07:51:47;;;;;;;16.88;3.10;;;13.60;87.30;;;;;;5049134;28;20025;-59
2024/03/31 07:54:13;;;;;;;14.40;3.53;;;13.60;87.40;;;;;;5066147;28;20090;-59
2024/03/31 07:56:39;;;;;;;19.65;3.42;;;13.60;87.50;;;;;;5065624;28;20036;-59
2024/03/31 07:59:04;;;;;;;20.20;3.78;;;13.70;87.50;;;;;;5065823;28;20050;-59
2024/03/31 08:01:30;;;;;;;19.50;4.85;;;13.70;87.70;;;;;;5065977;28;20366;-59
2024/03/31 08:03:55;;;;;;;20.77;4.10;;;13.70;87.70;;;;;;5065733;28;20055;-59
2024/03/31 08:06:21;;;;;;;21.05;3.35;;;13.70;88.00;;;;;;5065953;28;20033;-59
2024/03/31 08:08:47;;;;;;;18.98;4.38;;;13.70;87.80;;;;;;5066768;28;20017;-59
2024/03/31 08:11:12;;;;;;;21.85;3.85;;;13.70;87.80;;;;;;5065657;28;20093;-59
2024/03/31 08:13:38;;;;;;;21.33;3.80;;;13.80;87.90;;;;;;5065427;28;20386;-59
2024/03/31 08:16:04;;;;;;;25.15;3.67;;;13.80;88.00;;;;;;5048635;28;20045;-59
2024/03/31 08:18:29;;;;;;;19.88;4.10;;;13.80;88.50;;;;;;5060367;28;20139;-59
2024/03/31 08:20:55;;;;;;;13.90;3.47;;;13.80;88.60;;;;;;5057230;28;20021;-59
2024/03/31 08:23:21;;;;;;;25.65;3.47;;;13.90;88.90;;;;;;5052764;28;20154;-59
2024/03/31 08:25:53;;;;;;;24.75;3.75;;;13.90;89.20;;;;;;5065999;28;20029;-59
2024/03/31 08:28:18;;;;;;;27.10;3.95;;;13.90;88.80;;;;;;5063755;28;20048;-59
2024/03/31 08:30:46;;;;;;;44.55;5.05;;;13.90;89.40;;;;;;5060759;28;20025;-59
2024/03/31 08:33:12;;;;;;;46.95;5.90;;;13.90;89.40;;;;;;5047900;28;20538;-59
2024/03/31 08:35:38;;;;;;;37.53;4.75;;;14.00;89.60;;;;;;5046476;28;20045;-59
2024/03/31 08:38:04;;;;;;;66.90;6.95;;;14.00;89.70;;;;;;5059516;28;20096;-59
2024/03/31 08:40:31;;;;;;;36.30;5.57;;;14.00;90.10;;;;;;5062899;28;20038;-59
2024/03/31 08:43:03;;;;;;;60.58;6.65;;;14.00;90.10;;;;;;5049349;28;20067;-59
2024/03/31 08:45:30;;;;;;;65.35;7.05;;;14.00;90.10;;;;;;5047707;28;20033;-59
2024/03/31 08:47:56;;;;;;;57.65;7.53;;;14.00;90.20;;;;;;5064416;28;20036;-59
2024/03/31 08:50:22;;;;;;;50.00;7.88;;;14.10;90.30;;;;;;5045388;28;20053;-59
2024/03/31 08:52:48;;;;;;;29.38;4.75;;;14.10;90.30;;;;;;5063699;28;20045;-59
2024/03/31 08:55:14;;;;;;;65.60;7.13;;;14.20;90.30;;;;;;5060134;28;20040;-59
2024/03/31 08:57:39;;;;;;;57.38;5.93;;;14.10;90.20;;;;;;5052054;28;20036;-59
2024/03/31 09:00:06;;;;;;;35.60;4.80;;;14.20;90.20;;;;;;5054401;28;20521;-59
2024/03/31 09:02:31;;;;;;;42.88;5.15;;;14.20;90.20;;;;;;5046623;28;20126;-59
2024/03/31 09:04:57;;;;;;;51.53;5.55;;;14.30;90.10;;;;;;5056037;28;20029;-59
2024/03/31 09:07:23;;;;;;;32.92;5.15;;;14.30;90.10;;;;;;5061285;28;20037;-59
2024/03/31 09:09:49;;;;;;;78.90;7.95;;;14.30;90.10;;;;;;5046704;28;20030;-59
2024/03/31 09:12:14;;;;;;;89.72;11.25;;;14.30;90.10;;;;;;5060431;28;20048;-62
2024/03/31 09:14:43;;;;;;;49.17;7.18;;;14.30;90.40;;;;;;5046765;28;20039;-59
2024/03/31 09:17:09;;;;;;;72.35;8.60;;;14.40;90.40;;;;;;5056509;28;20040;-58
2024/03/31 09:19:35;;;;;;;65.18;8.15;;;14.40;90.30;;;;;;5063512;28;20059;-59
2024/03/31 09:22:01;;;;;;;125.45;16.05;;;14.40;90.10;;;;;;5048326;28;20033;-59
2024/03/31 09:24:28;;;;;;;84.07;10.32;;;14.40;90.30;;;;;;5031227;28;20040;-59
2024/03/31 09:26:54;;;;;;;43.42;6.15;;;14.40;90.40;;;;;;5043852;28;20220;-59
2024/03/31 09:29:20;;;;;;;56.33;7.55;;;14.50;90.30;;;;;;5044206;28;20097;-59
2024/03/31 09:31:46;;;;;;;294.00;25.10;;;14.50;90.20;;;;;;5051925;28;20080;-59
2024/03/31 09:34:11;;;;;;;249.15;22.38;;;14.50;90.70;;;;;;5051542;28;20079;-58
2024/03/31 09:36:39;;;;;;;203.15;20.35;;;14.60;90.70;;;;;;5056056;28;20039;-59
2024/03/31 09:39:05;;;;;;;122.45;13.27;;;14.70;90.70;;;;;;5064911;28;20059;-59
2024/03/31 09:41:31;;;;;;;230.98;21.98;;;14.70;90.70;;;;;;5046550;28;20448;-59
2024/03/31 09:43:57;;;;;;;156.65;16.40;;;14.70;91.00;;;;;;5055711;28;20037;-60
2024/03/31 09:46:22;;;;;;;140.73;12.90;;;14.80;90.90;;;;;;5043629;28;20045;-59
2024/03/31 09:48:50;;;;;;;122.85;11.77;;;14.80;90.60;;;;;;5044988;28;20065;-60
2024/03/31 09:51:24;;;;;;;112.80;11.77;;;14.80;90.70;;;;;;5043069;28;20091;-59
2024/03/31 09:54:00;;;;;;;146.10;15.88;;;14.80;90.70;;;;;;5053104;28;20095;-59
2024/03/31 09:56:34;;;;;;;120.68;12.45;;;14.80;90.70;;;;;;5044689;28;20039;-59
2024/03/31 09:59:01;;;;;;;114.05;11.77;;;14.80;90.70;;;;;;5043749;28;20097;-59
2024/03/31 10:01:26;;;;;;;139.80;13.45;;;14.80;90.80;;;;;;5043352;28;20187;-59
2024/03/31 10:03:52;;;;;;;114.85;12.10;;;14.90;90.80;;;;;;5036238;28;20022;-59
2024/03/31 10:06:18;;;;;;;143.20;13.82;;;14.90;90.80;;;;;;5050821;28;20060;-59
2024/03/31 10:08:43;;;;;;;139.68;13.82;;;14.90;90.80;;;;;;5034935;28;20473;-60
2024/03/31 10:11:09;;;;;;;98.40;11.77;;;14.90;90.90;;;;;;5042753;28;20033;-59
2024/03/31 10:13:34;;;;;;;123.70;12.75;;;15.00;90.80;;;;;;5061472;28;20049;-59
2024/03/31 10:16:00;;;;;;;100.68;11.43;;;15.00;90.90;;;;;;5064555;28;20039;-59
2024/03/31 10:18:26;;;;;;;118.07;13.02;;;15.10;90.80;;;;;;5029598;28;20033;-60
2024/03/31 10:20:52;;;;;;;60.03;8.40;;;15.10;90.70;;;;;;5043218;28;20053;-59
2024/03/31 10:23:18;;;;;;;104.57;10.48;;;15.10;90.80;;;;;;5042728;28;20032;-59
2024/03/31 10:25:45;;;;;;;133.63;14.60;;;15.10;90.60;;;;;;5026531;28;20026;-59
2024/03/31 10:28:10;;;;;;;144.35;13.75;;;15.20;90.90;;;;;;5042623;28;20018;-59
2024/03/31 10:30:36;;;;;;;137.52;16.30;;;15.20;90.80;;;;;;5026534;28;20045;-59
2024/03/31 10:33:03;;;;;;;83.80;10.52;;;15.20;90.90;;;;;;5059704;28;20137;-59
2024/03/31 10:35:29;;;;;;;117.75;12.75;;;15.30;90.80;;;;;;5043890;28;20047;-59
2024/03/31 10:37:56;;;;;;;777.92;75.90;;;15.40;90.70;;;;;;5026550;28;20041;-59
2024/03/31 10:40:25;;;;;;;325.50;34.22;;;15.30;90.50;;;;;;5026565;28;20048;-59
2024/03/31 10:42:52;;;;;;;226.35;22.00;;;15.40;90.60;;;;;;5026508;28;20461;-59
2024/03/31 10:45:17;;;;;;;183.43;18.27;;;15.40;90.60;;;;;;5026585;28;20064;-59
2024/03/31 10:47:43;;;;;;;163.43;19.77;;;15.50;90.70;;;;;;5045383;28;20037;-59
2024/03/31 10:50:09;;;;;;;154.82;16.42;;;15.50;90.60;;;;;;5032428;28;20021;-59
2024/03/31 10:52:38;;;;;;;121.38;15.35;;;15.50;90.70;;;;;;5050759;28;20056;-59
2024/03/31 10:55:06;;;;;;;104.93;12.10;;;15.60;90.60;;;;;;5032452;28;20040;-59
2024/03/31 10:57:39;;;;;;;99.43;13.95;;;15.60;90.60;;;;;;5050482;28;20029;-59
2024/03/31 11:00:06;;;;;;;136.77;13.70;;;15.60;90.50;;;;;;5050310;28;20026;-59
2024/03/31 11:02:33;;;;;;;115.38;14.75;;;15.60;90.50;;;;;;5032659;28;20047;-59
2024/03/31 11:05:10;;;;;;;115.25;11.50;;;15.70;90.50;;;;;;5032913;28;20109;-59
2024/03/31 11:07:45;;;;;;;95.18;11.35;;;15.70;90.20;;;;;;5049241;28;20410;-59
2024/03/31 11:10:12;;;;;;;80.40;10.20;;;15.80;90.20;;;;;;5049461;28;20333;-59
2024/03/31 11:12:41;;;;;;;94.78;11.55;;;15.80;90.20;;;;;;5049142;28;20038;-59
2024/03/31 11:15:08;;;;;;;133.75;14.98;;;15.80;90.10;;;;;;5049251;28;20099;-59
2024/03/31 11:17:33;;;;;;;95.90;10.63;;;15.90;90.10;;;;;;5032849;28;20037;-59
2024/03/31 11:20:00;;;;;;;67.78;8.52;;;15.90;90.20;;;;;;5034588;28;20029;-59
2024/03/31 11:22:26;;;;;;;105.50;11.82;;;15.90;89.90;;;;;;5049250;28;20037;-59
2024/03/31 11:24:52;;;;;;;95.47;10.75;;;16.00;89.90;;;;;;5048890;28;20026;-60
2024/03/31 11:27:18;;;;;;;100.85;12.57;;;16.00;90.00;;;;;;5048891;28;20036;-60
2024/03/31 11:29:43;;;;;;;111.18;12.23;;;16.00;90.00;;;;;;5048724;28;20037;-59
2024/03/31 11:32:10;;;;;;;192.65;18.63;;;16.10;90.00;;;;;;5049074;28;20029;-59
2024/03/31 11:34:35;;;;;;;118.22;13.32;;;16.10;90.10;;;;;;5048917;28;20032;-59
2024/03/31 11:37:07;;;;;;;132.70;15.18;;;16.20;90.10;;;;;;5049023;28;20037;-59
2024/03/31 11:39:36;;;;;;;143.27;15.13;;;16.20;90.10;;;;;;5049012;28;20079;-59
2024/03/31 11:42:02;;;;;;;113.70;11.80;;;16.30;90.10;;;;;;5047487;28;20034;-59
2024/03/31 11:44:31;;;;;;;223.20;21.13;;;16.30;90.00;;;;;;5059337;28;20025;-59
2024/03/31 11:46:57;;;;;;;175.32;18.08;;;16.40;90.00;;;;;;5049046;28;20081;-59
2024/03/31 11:49:23;;;;;;;94.95;12.60;;;16.40;90.00;;;;;;5049935;28;20067;-59
2024/03/31 11:51:48;;;;;;;160.48;16.27;;;16.50;89.80;;;;;;5050432;28;20040;-58
2024/03/31 11:54:14;;;;;;;134.23;15.60;;;16.50;90.00;;;;;;5060995;28;20025;-59
2024/03/31 11:56:39;;;;;;;223.93;26.17;;;16.60;90.00;;;;;;5048720;28;20043;-59
2024/03/31 11:59:18;;;;;;;279.10;26.42;;;16.60;90.00;;;;;;5060541;28;20029;-59
2024/03/31 12:01:44;;;;;;;152.82;15.35;;;16.70;90.00;;;;;;5052775;28;20055;-59
2024/03/31 12:04:16;;;;;;;139.20;17.08;;;16.70;89.90;;;;;;5047775;28;20029;-59
2024/03/31 12:06:42;;;;;;;122.82;15.00;;;16.80;89.80;;;;;;5053388;28;20103;-59
2024/03/31 12:09:08;;;;;;;158.32;17.50;;;16.90;89.50;;;;;;5047844;28;20040;-59
2024/03/31 12:11:34;;;;;;;140.70;16.00;;;16.90;89.20;;;;;;5065333;28;20041;-59
2024/03/31 12:14:00;;;;;;;121.85;14.90;;;17.00;89.00;;;;;;5064958;28;20025;-59
2024/03/31 12:16:25;;;;;;;116.47;14.93;;;17.00;89.10;;;;;;5057607;28;20047;-59
2024/03/31 12:18:51;;;;;;;90.40;10.25;;;17.10;88.80;;;;;;5048704;28;20052;-60
2024/03/31 12:21:20;;;;;;;77.75;10.10;;;17.10;88.60;;;;;;5029357;28;20051;-60
2024/03/31 12:23:47;;;;;;;72.57;9.77;;;17.10;88.70;;;;;;5065273;28;20071;-59
2024/03/31 12:26:13;;;;;;;96.18;10.68;;;17.10;89.00;;;;;;5038250;28;20084;-60
2024/03/31 12:28:38;;;;;;;74.28;9.70;;;17.20;89.00;;;;;;5042793;28;20099;-57